createdAt,value
2018-06-03T21:18:25.694Z,25.60
2018-06-03T21:20:57.803Z,25.80
2018-06-03T21:23:27.571Z,25.90
2018-06-03T21:25:59.175Z,26.00
2018-06-03T21:28:30.043Z,26.00
2018-06-03T21:31:01.940Z,26.10
2018-06-03T21:33:34.960Z,26.10
2018-06-03T21:36:06.865Z,26.20
2018-06-03T21:38:38.191Z,26.20
2018-06-03T21:41:10.558Z,26.20
2018-06-03T21:43:38.561Z,26.30
2018-06-03T21:46:07.180Z,26.20
2018-06-03T21:48:35.742Z,26.30
2018-06-03T21:51:04.510Z,26.30
2018-06-03T21:53:34.991Z,26.30
2018-06-03T21:56:02.985Z,26.30
2018-06-03T21:58:30.830Z,26.30
2018-06-03T22:00:59.345Z,26.30
2018-06-03T22:03:27.131Z,26.30
2018-06-03T22:05:54.996Z,26.30
2018-06-03T22:08:22.861Z,26.30
2018-06-03T22:10:50.825Z,26.30
2018-06-03T22:13:18.869Z,26.30
2018-06-03T22:15:46.734Z,26.30
2018-06-03T22:18:14.671Z,26.30
2018-06-03T22:20:42.504Z,26.40
2018-06-03T22:23:10.367Z,26.30
2018-06-03T22:25:38.301Z,26.40
2018-06-03T22:28:06.168Z,26.40
2018-06-03T22:30:34.035Z,26.30
2018-06-03T22:33:01.903Z,26.40
2018-06-03T22:35:29.873Z,26.40
2018-06-03T22:37:57.838Z,26.30
2018-06-03T22:40:25.748Z,26.30
2018-06-03T22:42:53.526Z,26.40
2018-06-03T22:45:21.440Z,26.30
2018-06-03T22:47:49.303Z,26.40
2018-06-03T22:50:17.271Z,26.30
2018-06-03T22:52:45.031Z,26.30
2018-06-03T22:55:12.904Z,26.40
2018-06-03T22:57:45.621Z,26.40
2018-06-03T23:00:13.448Z,26.40
2018-06-03T23:02:41.247Z,26.40
2018-06-03T23:05:09.078Z,26.40
2018-06-03T23:07:36.886Z,26.40
2018-06-03T23:10:04.643Z,26.40
2018-06-03T23:12:32.506Z,26.40
2018-06-03T23:15:00.266Z,26.40
2018-06-03T23:17:28.035Z,26.40
2018-06-03T23:19:55.868Z,26.40
2018-06-03T23:22:23.735Z,26.40
2018-06-03T23:24:51.497Z,26.40
2018-06-03T23:27:19.363Z,26.40
2018-06-03T23:29:47.157Z,26.40
2018-06-03T23:32:14.931Z,26.40
2018-06-03T23:34:42.859Z,26.40
2018-06-03T23:37:10.725Z,26.40
2018-06-03T23:39:38.546Z,26.40
2018-06-03T23:42:06.458Z,26.30
2018-06-03T23:44:34.325Z,26.40
2018-06-03T23:47:02.191Z,26.30
2018-06-03T23:49:29.999Z,26.40
2018-06-03T23:51:57.924Z,26.40
2018-06-03T23:54:25.789Z,26.40
2018-06-03T23:56:53.590Z,26.40
2018-06-03T23:59:22.240Z,26.40
